sensor_id;sensor_type;location;lat;lon;timestamp;P1;durP1;ratioP1;P2;durP2;ratioP2
37895;SDS011;23733;53.254;10.430;2023-02-15T00:01:39;43.90;;;25.27;;
37895;SDS011;23733;53.254;10.430;2023-02-15T00:04:06;45.13;;;25.93;;
37895;SDS011;23733;53.254;10.430;2023-02-15T00:06:32;46.67;;;26.97;;
37895;SDS011;23733;53.254;10.430;2023-02-15T00:08:59;46.67;;;27.13;;
37895;SDS011;23733;53.254;10.430;2023-02-15T00:11:26;47.57;;;26.47;;
37895;SDS011;23733;53.254;10.430;2023-02-15T00:14:15;42.10;;;24.73;;
37895;SDS011;23733;53.254;10.430;2023-02-15T00:16:42;41.03;;;25.70;;
37895;SDS011;23733;53.254;10.430;2023-02-15T00:19:09;41.33;;;24.57;;
37895;SDS011;23733;53.254;10.430;2023-02-15T00:21:36;48.43;;;26.70;;
37895;SDS011;23733;53.254;10.430;2023-02-15T00:24:04;45.70;;;26.50;;
37895;SDS011;23733;53.254;10.430;2023-02-15T00:26:32;43.50;;;26.13;;
37895;SDS011;23733;53.254;10.430;2023-02-15T00:28:58;42.47;;;24.77;;
37895;SDS011;23733;53.254;10.430;2023-02-15T00:31:25;39.63;;;24.10;;
37895;SDS011;23733;53.254;10.430;2023-02-15T00:33:52;42.33;;;24.23;;
37895;SDS011;23733;53.254;10.430;2023-02-15T00:36:18;42.67;;;25.43;;
37895;SDS011;23733;53.254;10.430;2023-02-15T00:38:44;40.10;;;24.30;;
37895;SDS011;23733;53.254;10.430;2023-02-15T00:41:11;39.43;;;24.90;;
37895;SDS011;23733;53.254;10.430;2023-02-15T00:43:37;39.33;;;23.70;;
37895;SDS011;23733;53.254;10.430;2023-02-15T00:46:03;46.57;;;26.73;;
37895;SDS011;23733;53.254;10.430;2023-02-15T00:48:30;37.10;;;23.73;;
37895;SDS011;23733;53.254;10.430;2023-02-15T00:50:57;43.37;;;25.70;;
37895;SDS011;23733;53.254;10.430;2023-02-15T00:53:24;39.37;;;25.07;;
37895;SDS011;23733;53.254;10.430;2023-02-15T00:55:51;45.13;;;25.97;;
37895;SDS011;23733;53.254;10.430;2023-02-15T00:58:17;40.50;;;23.40;;
37895;SDS011;23733;53.254;10.430;2023-02-15T01:00:44;37.80;;;22.40;;
37895;SDS011;23733;53.254;10.430;2023-02-15T01:03:11;40.77;;;24.77;;
37895;SDS011;23733;53.254;10.430;2023-02-15T01:05:38;37.63;;;22.67;;
37895;SDS011;23733;53.254;10.430;2023-02-15T01:08:04;36.20;;;22.37;;
37895;SDS011;23733;53.254;10.430;2023-02-15T01:10:30;37.17;;;22.63;;
37895;SDS011;23733;53.254;10.430;2023-02-15T01:12:57;38.10;;;22.67;;
37895;SDS011;23733;53.254;10.430;2023-02-15T01:15:23;35.83;;;22.67;;
37895;SDS011;23733;53.254;10.430;2023-02-15T01:17:50;36.53;;;23.27;;
37895;SDS011;23733;53.254;10.430;2023-02-15T01:20:18;36.67;;;22.87;;
37895;SDS011;23733;53.254;10.430;2023-02-15T01:22:45;37.23;;;23.43;;
37895;SDS011;23733;53.254;10.430;2023-02-15T01:25:11;37.03;;;23.87;;
37895;SDS011;23733;53.254;10.430;2023-02-15T01:27:37;42.80;;;24.40;;
37895;SDS011;23733;53.254;10.430;2023-02-15T01:30:04;39.43;;;22.27;;
37895;SDS011;23733;53.254;10.430;2023-02-15T01:32:30;35.73;;;22.33;;
37895;SDS011;23733;53.254;10.430;2023-02-15T01:34:56;37.87;;;23.40;;
37895;SDS011;23733;53.254;10.430;2023-02-15T01:37:23;38.63;;;23.70;;
37895;SDS011;23733;53.254;10.430;2023-02-15T01:39:49;39.13;;;23.50;;
37895;SDS011;23733;53.254;10.430;2023-02-15T01:42:20;39.77;;;23.33;;
37895;SDS011;23733;53.254;10.430;2023-02-15T01:44:48;38.73;;;22.83;;
37895;SDS011;23733;53.254;10.430;2023-02-15T01:47:16;40.27;;;23.90;;
37895;SDS011;23733;53.254;10.430;2023-02-15T01:49:43;39.30;;;23.57;;
37895;SDS011;23733;53.254;10.430;2023-02-15T01:52:12;37.13;;;22.90;;
37895;SDS011;23733;53.254;10.430;2023-02-15T01:54:39;38.37;;;22.07;;
37895;SDS011;23733;53.254;10.430;2023-02-15T01:57:11;35.80;;;21.90;;
37895;SDS011;23733;53.254;10.430;2023-02-15T01:59:38;39.87;;;24.37;;
37895;SDS011;23733;53.254;10.430;2023-02-15T02:02:05;37.00;;;22.17;;
37895;SDS011;23733;53.254;10.430;2023-02-15T02:04:35;41.53;;;24.30;;
37895;SDS011;23733;53.254;10.430;2023-02-15T02:07:06;38.90;;;23.57;;
37895;SDS011;23733;53.254;10.430;2023-02-15T02:09:32;38.30;;;23.40;;
37895;SDS011;23733;53.254;10.430;2023-02-15T02:11:59;39.83;;;24.20;;
37895;SDS011;23733;53.254;10.430;2023-02-15T02:14:26;40.60;;;24.23;;
37895;SDS011;23733;53.254;10.430;2023-02-15T02:16:57;42.13;;;23.30;;
37895;SDS011;23733;53.254;10.430;2023-02-15T02:19:32;43.63;;;24.60;;
37895;SDS011;23733;53.254;10.430;2023-02-15T02:22:18;39.10;;;23.50;;
37895;SDS011;23733;53.254;10.430;2023-02-15T02:27:33;42.10;;;24.40;;
37895;SDS011;23733;53.254;10.430;2023-02-15T02:35:27;38.30;;;23.07;;
37895;SDS011;23733;53.254;10.430;2023-02-15T02:43:50;37.47;;;22.70;;
37895;SDS011;23733;53.254;10.430;2023-02-15T02:46:22;37.00;;;22.63;;
37895;SDS011;23733;53.254;10.430;2023-02-15T02:48:50;36.23;;;23.00;;
37895;SDS011;23733;53.254;10.430;2023-02-15T02:51:16;36.50;;;22.03;;
37895;SDS011;23733;53.254;10.430;2023-02-15T02:53:47;37.03;;;22.47;;
37895;SDS011;23733;53.254;10.430;2023-02-15T02:56:21;48.37;;;22.67;;
37895;SDS011;23733;53.254;10.430;2023-02-15T02:58:50;34.50;;;20.53;;
37895;SDS011;23733;53.254;10.430;2023-02-15T03:01:19;32.40;;;20.47;;
37895;SDS011;23733;53.254;10.430;2023-02-15T03:03:49;37.27;;;22.33;;
37895;SDS011;23733;53.254;10.430;2023-02-15T03:07:00;35.00;;;21.43;;
37895;SDS011;23733;53.254;10.430;2023-02-15T03:09:08;34.97;;;20.73;;
37895;SDS011;23733;53.254;10.430;2023-02-15T03:11:43;33.17;;;20.33;;
37895;SDS011;23733;53.254;10.430;2023-02-15T03:14:10;31.83;;;19.40;;
37895;SDS011;23733;53.254;10.430;2023-02-15T03:16:37;31.20;;;19.60;;
37895;SDS011;23733;53.254;10.430;2023-02-15T03:19:08;32.07;;;20.93;;
37895;SDS011;23733;53.254;10.430;2023-02-15T03:21:40;30.63;;;19.13;;
37895;SDS011;23733;53.254;10.430;2023-02-15T03:24:12;33.70;;;20.83;;
37895;SDS011;23733;53.254;10.430;2023-02-15T03:26:41;30.80;;;19.93;;
37895;SDS011;23733;53.254;10.430;2023-02-15T03:29:08;29.53;;;19.67;;
37895;SDS011;23733;53.254;10.430;2023-02-15T03:31:37;30.23;;;18.80;;
37895;SDS011;23733;53.254;10.430;2023-02-15T03:34:06;31.13;;;19.37;;
37895;SDS011;23733;53.254;10.430;2023-02-15T03:39:25;31.63;;;19.27;;
37895;SDS011;23733;53.254;10.430;2023-02-15T03:41:59;32.77;;;19.37;;
37895;SDS011;23733;53.254;10.430;2023-02-15T03:44:29;28.80;;;18.50;;
37895;SDS011;23733;53.254;10.430;2023-02-15T03:47:06;29.63;;;18.60;;
37895;SDS011;23733;53.254;10.430;2023-02-15T03:49:37;30.80;;;19.47;;
37895;SDS011;23733;53.254;10.430;2023-02-15T03:52:05;31.37;;;19.67;;
37895;SDS011;23733;53.254;10.430;2023-02-15T03:54:33;30.27;;;19.10;;
37895;SDS011;23733;53.254;10.430;2023-02-15T03:57:16;28.30;;;17.47;;
37895;SDS011;23733;53.254;10.430;2023-02-15T04:00:03;31.77;;;19.43;;
37895;SDS011;23733;53.254;10.430;2023-02-15T04:02:58;35.83;;;18.97;;
37895;SDS011;23733;53.254;10.430;2023-02-15T04:05:29;30.20;;;18.47;;
37895;SDS011;23733;53.254;10.430;2023-02-15T04:07:56;29.43;;;18.43;;
37895;SDS011;23733;53.254;10.430;2023-02-15T04:10:22;23.43;;;15.53;;
37895;SDS011;23733;53.254;10.430;2023-02-15T04:13:07;28.63;;;17.93;;
37895;SDS011;23733;53.254;10.430;2023-02-15T04:15:33;25.87;;;17.20;;
37895;SDS011;23733;53.254;10.430;2023-02-15T04:18:18;28.50;;;17.17;;
37895;SDS011;23733;53.254;10.430;2023-02-15T04:20:45;26.73;;;16.97;;
37895;SDS011;23733;53.254;10.430;2023-02-15T04:23:30;24.03;;;15.13;;
37895;SDS011;23733;53.254;10.430;2023-02-15T04:26:16;25.67;;;16.87;;
37895;SDS011;23733;53.254;10.430;2023-02-15T04:28:42;24.27;;;15.87;;
37895;SDS011;23733;53.254;10.430;2023-02-15T04:31:08;24.10;;;15.83;;
37895;SDS011;23733;53.254;10.430;2023-02-15T04:33:35;26.07;;;16.57;;
37895;SDS011;23733;53.254;10.430;2023-02-15T04:36:02;24.80;;;15.47;;
37895;SDS011;23733;53.254;10.430;2023-02-15T04:38:28;23.90;;;15.83;;
37895;SDS011;23733;53.254;10.430;2023-02-15T04:40:55;25.73;;;15.67;;
37895;SDS011;23733;53.254;10.430;2023-02-15T04:43:21;22.40;;;14.93;;
37895;SDS011;23733;53.254;10.430;2023-02-15T04:45:48;24.90;;;15.60;;
37895;SDS011;23733;53.254;10.430;2023-02-15T04:48:15;24.47;;;15.47;;
37895;SDS011;23733;53.254;10.430;2023-02-15T04:50:43;24.73;;;15.77;;
37895;SDS011;23733;53.254;10.430;2023-02-15T04:53:10;24.40;;;15.60;;
37895;SDS011;23733;53.254;10.430;2023-02-15T04:55:36;23.90;;;15.70;;
37895;SDS011;23733;53.254;10.430;2023-02-15T04:58:03;26.10;;;16.50;;
37895;SDS011;23733;53.254;10.430;2023-02-15T05:00:29;25.80;;;16.10;;
37895;SDS011;23733;53.254;10.430;2023-02-15T05:02:55;24.97;;;16.03;;
37895;SDS011;23733;53.254;10.430;2023-02-15T05:05:22;24.07;;;15.37;;
37895;SDS011;23733;53.254;10.430;2023-02-15T05:07:48;27.20;;;15.77;;
37895;SDS011;23733;53.254;10.430;2023-02-15T05:10:14;25.13;;;16.30;;
37895;SDS011;23733;53.254;10.430;2023-02-15T05:12:40;26.53;;;16.77;;
37895;SDS011;23733;53.254;10.430;2023-02-15T05:15:07;27.43;;;16.37;;
37895;SDS011;23733;53.254;10.430;2023-02-15T05:17:36;25.73;;;15.90;;
37895;SDS011;23733;53.254;10.430;2023-02-15T05:20:03;29.87;;;17.73;;
37895;SDS011;23733;53.254;10.430;2023-02-15T05:22:30;26.70;;;16.90;;
37895;SDS011;23733;53.254;10.430;2023-02-15T05:24:56;23.23;;;14.70;;
37895;SDS011;23733;53.254;10.430;2023-02-15T05:27:41;26.73;;;15.37;;
37895;SDS011;23733;53.254;10.430;2023-02-15T05:30:26;25.13;;;16.20;;
37895;SDS011;23733;53.254;10.430;2023-02-15T05:32:52;25.50;;;16.80;;
37895;SDS011;23733;53.254;10.430;2023-02-15T05:35:18;25.37;;;16.10;;
37895;SDS011;23733;53.254;10.430;2023-02-15T05:37:44;26.83;;;16.83;;
37895;SDS011;23733;53.254;10.430;2023-02-15T05:40:11;26.17;;;16.27;;
37895;SDS011;23733;53.254;10.430;2023-02-15T05:42:37;31.53;;;16.67;;
37895;SDS011;23733;53.254;10.430;2023-02-15T05:45:04;26.93;;;17.37;;
37895;SDS011;23733;53.254;10.430;2023-02-15T05:47:30;27.60;;;16.67;;
37895;SDS011;23733;53.254;10.430;2023-02-15T05:49:57;25.60;;;15.90;;
37895;SDS011;23733;53.254;10.430;2023-02-15T05:52:23;23.73;;;15.90;;
37895;SDS011;23733;53.254;10.430;2023-02-15T05:54:49;26.47;;;16.47;;
37895;SDS011;23733;53.254;10.430;2023-02-15T05:57:16;27.20;;;16.63;;
37895;SDS011;23733;53.254;10.430;2023-02-15T05:59:42;29.53;;;17.93;;
37895;SDS011;23733;53.254;10.430;2023-02-15T06:02:08;24.73;;;16.37;;
37895;SDS011;23733;53.254;10.430;2023-02-15T06:04:34;32.50;;;17.63;;
37895;SDS011;23733;53.254;10.430;2023-02-15T06:07:01;24.90;;;16.17;;
37895;SDS011;23733;53.254;10.430;2023-02-15T06:09:27;26.13;;;16.87;;
37895;SDS011;23733;53.254;10.430;2023-02-15T06:11:53;25.77;;;15.60;;
37895;SDS011;23733;53.254;10.430;2023-02-15T06:14:20;27.27;;;17.73;;
37895;SDS011;23733;53.254;10.430;2023-02-15T06:16:46;27.73;;;17.00;;
37895;SDS011;23733;53.254;10.430;2023-02-15T06:19:12;29.67;;;17.40;;
37895;SDS011;23733;53.254;10.430;2023-02-15T06:21:39;27.67;;;16.83;;
37895;SDS011;23733;53.254;10.430;2023-02-15T06:24:05;25.63;;;17.07;;
37895;SDS011;23733;53.254;10.430;2023-02-15T06:26:31;25.43;;;16.03;;
37895;SDS011;23733;53.254;10.430;2023-02-15T06:28:58;26.77;;;16.10;;
37895;SDS011;23733;53.254;10.430;2023-02-15T06:31:24;27.60;;;17.33;;
37895;SDS011;23733;53.254;10.430;2023-02-15T06:33:50;26.80;;;17.07;;
37895;SDS011;23733;53.254;10.430;2023-02-15T06:36:17;26.43;;;16.97;;
37895;SDS011;23733;53.254;10.430;2023-02-15T06:38:43;26.53;;;16.33;;
37895;SDS011;23733;53.254;10.430;2023-02-15T06:41:09;26.87;;;16.73;;
37895;SDS011;23733;53.254;10.430;2023-02-15T06:43:36;27.20;;;16.80;;
37895;SDS011;23733;53.254;10.430;2023-02-15T06:46:02;25.97;;;16.77;;
37895;SDS011;23733;53.254;10.430;2023-02-15T06:48:28;28.03;;;16.97;;
37895;SDS011;23733;53.254;10.430;2023-02-15T06:50:55;27.37;;;17.07;;
37895;SDS011;23733;53.254;10.430;2023-02-15T06:53:21;31.93;;;18.57;;
37895;SDS011;23733;53.254;10.430;2023-02-15T06:55:47;28.20;;;17.43;;
37895;SDS011;23733;53.254;10.430;2023-02-15T06:58:14;25.13;;;16.40;;
37895;SDS011;23733;53.254;10.430;2023-02-15T07:00:40;29.70;;;17.57;;
37895;SDS011;23733;53.254;10.430;2023-02-15T07:03:06;27.93;;;16.67;;
37895;SDS011;23733;53.254;10.430;2023-02-15T07:05:33;29.37;;;17.90;;
37895;SDS011;23733;53.254;10.430;2023-02-15T07:08:00;28.23;;;17.27;;
37895;SDS011;23733;53.254;10.430;2023-02-15T07:10:27;27.00;;;16.63;;
37895;SDS011;23733;53.254;10.430;2023-02-15T07:12:53;26.63;;;15.77;;
37895;SDS011;23733;53.254;10.430;2023-02-15T07:15:20;30.80;;;17.43;;
37895;SDS011;23733;53.254;10.430;2023-02-15T07:17:47;27.80;;;17.17;;
37895;SDS011;23733;53.254;10.430;2023-02-15T07:20:18;29.50;;;16.83;;
37895;SDS011;23733;53.254;10.430;2023-02-15T07:22:45;27.93;;;16.83;;
37895;SDS011;23733;53.254;10.430;2023-02-15T07:25:11;27.27;;;16.57;;
37895;SDS011;23733;53.254;10.430;2023-02-15T07:27:38;27.40;;;17.13;;
37895;SDS011;23733;53.254;10.430;2023-02-15T07:30:05;28.93;;;18.00;;
37895;SDS011;23733;53.254;10.430;2023-02-15T07:32:32;26.43;;;16.60;;
37895;SDS011;23733;53.254;10.430;2023-02-15T07:34:59;25.07;;;15.30;;
37895;SDS011;23733;53.254;10.430;2023-02-15T07:37:26;27.10;;;17.17;;
37895;SDS011;23733;53.254;10.430;2023-02-15T07:39:52;28.67;;;16.87;;
37895;SDS011;23733;53.254;10.430;2023-02-15T07:42:19;25.87;;;16.23;;
37895;SDS011;23733;53.254;10.430;2023-02-15T07:44:46;25.47;;;16.03;;
37895;SDS011;23733;53.254;10.430;2023-02-15T07:47:12;29.13;;;16.80;;
37895;SDS011;23733;53.254;10.430;2023-02-15T07:49:39;27.27;;;16.53;;
37895;SDS011;23733;53.254;10.430;2023-02-15T07:52:05;25.67;;;15.97;;
37895;SDS011;23733;53.254;10.430;2023-02-15T07:54:31;25.87;;;15.40;;
37895;SDS011;23733;53.254;10.430;2023-02-15T07:56:58;24.57;;;15.73;;
37895;SDS011;23733;53.254;10.430;2023-02-15T07:59:25;27.90;;;16.87;;
37895;SDS011;23733;53.254;10.430;2023-02-15T08:01:52;25.83;;;16.10;;
37895;SDS011;23733;53.254;10.430;2023-02-15T08:04:21;28.20;;;17.57;;
37895;SDS011;23733;53.254;10.430;2023-02-15T08:06:47;28.20;;;17.73;;
37895;SDS011;23733;53.254;10.430;2023-02-15T08:09:17;29.27;;;17.67;;
37895;SDS011;23733;53.254;10.430;2023-02-15T08:11:44;26.97;;;16.83;;
37895;SDS011;23733;53.254;10.430;2023-02-15T08:14:14;28.60;;;17.20;;
37895;SDS011;23733;53.254;10.430;2023-02-15T08:19:08;27.20;;;16.70;;
37895;SDS011;23733;53.254;10.430;2023-02-15T08:21:36;32.90;;;18.20;;
37895;SDS011;23733;53.254;10.430;2023-02-15T08:24:03;25.93;;;16.90;;
37895;SDS011;23733;53.254;10.430;2023-02-15T08:26:31;27.03;;;16.27;;
37895;SDS011;23733;53.254;10.430;2023-02-15T08:28:57;24.20;;;14.53;;
37895;SDS011;23733;53.254;10.430;2023-02-15T08:31:24;25.70;;;16.27;;
37895;SDS011;23733;53.254;10.430;2023-02-15T08:33:51;25.77;;;16.97;;
37895;SDS011;23733;53.254;10.430;2023-02-15T08:36:19;26.83;;;16.20;;
37895;SDS011;23733;53.254;10.430;2023-02-15T08:38:46;27.30;;;16.73;;
37895;SDS011;23733;53.254;10.430;2023-02-15T08:41:13;23.27;;;15.17;;
37895;SDS011;23733;53.254;10.430;2023-02-15T08:43:40;24.10;;;16.20;;
37895;SDS011;23733;53.254;10.430;2023-02-15T08:46:07;32.93;;;17.67;;
37895;SDS011;23733;53.254;10.430;2023-02-15T08:48:33;26.23;;;16.43;;
37895;SDS011;23733;53.254;10.430;2023-02-15T08:51:04;28.63;;;16.90;;
37895;SDS011;23733;53.254;10.430;2023-02-15T08:53:31;28.43;;;16.87;;
37895;SDS011;23733;53.254;10.430;2023-02-15T08:55:58;24.97;;;16.20;;
37895;SDS011;23733;53.254;10.430;2023-02-15T08:58:24;23.70;;;15.40;;
37895;SDS011;23733;53.254;10.430;2023-02-15T09:00:51;22.43;;;13.83;;
37895;SDS011;23733;53.254;10.430;2023-02-15T09:03:17;23.03;;;15.33;;
37895;SDS011;23733;53.254;10.430;2023-02-15T09:05:43;24.50;;;15.37;;
37895;SDS011;23733;53.254;10.430;2023-02-15T09:08:10;24.30;;;15.80;;
37895;SDS011;23733;53.254;10.430;2023-02-15T09:10:36;30.57;;;17.07;;
37895;SDS011;23733;53.254;10.430;2023-02-15T09:13:02;29.47;;;18.40;;
37895;SDS011;23733;53.254;10.430;2023-02-15T09:15:29;29.20;;;17.70;;
37895;SDS011;23733;53.254;10.430;2023-02-15T09:17:55;25.67;;;15.63;;
37895;SDS011;23733;53.254;10.430;2023-02-15T09:20:24;25.83;;;16.80;;
37895;SDS011;23733;53.254;10.430;2023-02-15T09:22:51;25.60;;;16.07;;
37895;SDS011;23733;53.254;10.430;2023-02-15T09:25:19;25.43;;;16.67;;
37895;SDS011;23733;53.254;10.430;2023-02-15T09:27:46;24.10;;;15.33;;
37895;SDS011;23733;53.254;10.430;2023-02-15T09:30:12;26.47;;;16.37;;
37895;SDS011;23733;53.254;10.430;2023-02-15T09:32:39;24.07;;;15.77;;
37895;SDS011;23733;53.254;10.430;2023-02-15T09:35:05;23.93;;;15.33;;
37895;SDS011;23733;53.254;10.430;2023-02-15T09:37:31;21.83;;;14.13;;
37895;SDS011;23733;53.254;10.430;2023-02-15T09:39:58;22.90;;;14.10;;
37895;SDS011;23733;53.254;10.430;2023-02-15T09:49:53;25.60;;;16.00;;
37895;SDS011;23733;53.254;10.430;2023-02-15T09:52:35;22.17;;;14.77;;
37895;SDS011;23733;53.254;10.430;2023-02-15T09:55:12;23.40;;;14.63;;
37895;SDS011;23733;53.254;10.430;2023-02-15T09:58:31;25.73;;;15.73;;
37895;SDS011;23733;53.254;10.430;2023-02-15T10:00:31;23.57;;;15.53;;
37895;SDS011;23733;53.254;10.430;2023-02-15T10:08:32;23.47;;;15.47;;
37895;SDS011;23733;53.254;10.430;2023-02-15T10:11:07;23.60;;;15.27;;
37895;SDS011;23733;53.254;10.430;2023-02-15T10:16:30;23.77;;;16.60;;
37895;SDS011;23733;53.254;10.430;2023-02-15T10:19:01;24.63;;;16.27;;
37895;SDS011;23733;53.254;10.430;2023-02-15T10:21:33;27.53;;;16.77;;
37895;SDS011;23733;53.254;10.430;2023-02-15T10:29:03;26.60;;;17.30;;
37895;SDS011;23733;53.254;10.430;2023-02-15T10:31:47;23.83;;;15.17;;
37895;SDS011;23733;53.254;10.430;2023-02-15T10:34:15;29.03;;;17.23;;
37895;SDS011;23733;53.254;10.430;2023-02-15T10:37:04;25.93;;;17.03;;
37895;SDS011;23733;53.254;10.430;2023-02-15T10:39:39;25.77;;;17.37;;
37895;SDS011;23733;53.254;10.430;2023-02-15T10:42:13;23.50;;;15.53;;
37895;SDS011;23733;53.254;10.430;2023-02-15T10:47:19;27.07;;;17.40;;
37895;SDS011;23733;53.254;10.430;2023-02-15T10:54:55;21.33;;;15.23;;
37895;SDS011;23733;53.254;10.430;2023-02-15T11:00:21;23.17;;;16.10;;
37895;SDS011;23733;53.254;10.430;2023-02-15T11:02:52;23.43;;;15.57;;
37895;SDS011;23733;53.254;10.430;2023-02-15T11:05:38;21.23;;;14.20;;
37895;SDS011;23733;53.254;10.430;2023-02-15T11:08:07;23.60;;;15.20;;
37895;SDS011;23733;53.254;10.430;2023-02-15T11:13:20;23.43;;;15.83;;
37895;SDS011;23733;53.254;10.430;2023-02-15T11:16:01;22.27;;;14.87;;
37895;SDS011;23733;53.254;10.430;2023-02-15T11:18:31;23.53;;;15.73;;
37895;SDS011;23733;53.254;10.430;2023-02-15T11:21:07;23.23;;;15.57;;
37895;SDS011;23733;53.254;10.430;2023-02-15T11:23:36;21.90;;;15.57;;
37895;SDS011;23733;53.254;10.430;2023-02-15T11:26:09;23.53;;;15.50;;
37895;SDS011;23733;53.254;10.430;2023-02-15T11:28:39;25.80;;;16.93;;
37895;SDS011;23733;53.254;10.430;2023-02-15T11:31:15;23.00;;;15.20;;
37895;SDS011;23733;53.254;10.430;2023-02-15T11:33:43;24.50;;;16.63;;
37895;SDS011;23733;53.254;10.430;2023-02-15T11:38:37;23.10;;;14.73;;
37895;SDS011;23733;53.254;10.430;2023-02-15T11:41:13;29.27;;;17.60;;
37895;SDS011;23733;53.254;10.430;2023-02-15T11:43:50;25.10;;;17.03;;
37895;SDS011;23733;53.254;10.430;2023-02-15T11:46:19;22.63;;;15.77;;
37895;SDS011;23733;53.254;10.430;2023-02-15T11:48:46;22.73;;;14.77;;
37895;SDS011;23733;53.254;10.430;2023-02-15T11:51:14;22.83;;;14.27;;
37895;SDS011;23733;53.254;10.430;2023-02-15T11:53:42;26.43;;;16.57;;
37895;SDS011;23733;53.254;10.430;2023-02-15T11:56:13;22.37;;;15.23;;
37895;SDS011;23733;53.254;10.430;2023-02-15T11:58:42;24.00;;;14.67;;
37895;SDS011;23733;53.254;10.430;2023-02-15T12:01:16;21.87;;;14.90;;
37895;SDS011;23733;53.254;10.430;2023-02-15T12:03:53;23.63;;;15.83;;
37895;SDS011;23733;53.254;10.430;2023-02-15T12:09:01;20.53;;;14.57;;
37895;SDS011;23733;53.254;10.430;2023-02-15T12:11:39;21.37;;;14.47;;
37895;SDS011;23733;53.254;10.430;2023-02-15T12:14:06;21.03;;;14.60;;
37895;SDS011;23733;53.254;10.430;2023-02-15T12:16:34;20.67;;;14.33;;
37895;SDS011;23733;53.254;10.430;2023-02-15T12:19:09;22.40;;;14.57;;
37895;SDS011;23733;53.254;10.430;2023-02-15T12:21:39;22.50;;;14.27;;
37895;SDS011;23733;53.254;10.430;2023-02-15T12:24:17;22.73;;;13.80;;
37895;SDS011;23733;53.254;10.430;2023-02-15T12:26:44;21.90;;;14.87;;
37895;SDS011;23733;53.254;10.430;2023-02-15T12:29:21;25.17;;;14.87;;
37895;SDS011;23733;53.254;10.430;2023-02-15T12:31:50;19.20;;;14.13;;
37895;SDS011;23733;53.254;10.430;2023-02-15T12:34:30;19.33;;;14.13;;
37895;SDS011;23733;53.254;10.430;2023-02-15T12:37:00;20.07;;;13.50;;
37895;SDS011;23733;53.254;10.430;2023-02-15T12:39:28;20.40;;;14.27;;
37895;SDS011;23733;53.254;10.430;2023-02-15T12:44:22;19.53;;;14.40;;
37895;SDS011;23733;53.254;10.430;2023-02-15T12:49:37;21.97;;;14.70;;
37895;SDS011;23733;53.254;10.430;2023-02-15T12:54:48;19.37;;;13.63;;
37895;SDS011;23733;53.254;10.430;2023-02-15T12:57:30;19.03;;;12.83;;
37895;SDS011;23733;53.254;10.430;2023-02-15T13:02:24;19.97;;;13.97;;
37895;SDS011;23733;53.254;10.430;2023-02-15T13:04:51;20.53;;;13.90;;
37895;SDS011;23733;53.254;10.430;2023-02-15T13:07:18;19.10;;;12.27;;
37895;SDS011;23733;53.254;10.430;2023-02-15T13:09:45;17.20;;;12.50;;
37895;SDS011;23733;53.254;10.430;2023-02-15T13:12:20;20.00;;;13.23;;
37895;SDS011;23733;53.254;10.430;2023-02-15T13:14:49;21.03;;;12.90;;
37895;SDS011;23733;53.254;10.430;2023-02-15T13:17:17;18.90;;;13.17;;
37895;SDS011;23733;53.254;10.430;2023-02-15T13:19:46;17.63;;;13.07;;
37895;SDS011;23733;53.254;10.430;2023-02-15T13:22:14;26.60;;;12.83;;
37895;SDS011;23733;53.254;10.430;2023-02-15T13:24:57;19.57;;;13.90;;
37895;SDS011;23733;53.254;10.430;2023-02-15T13:27:26;18.07;;;12.40;;
37895;SDS011;23733;53.254;10.430;2023-02-15T13:29:56;17.93;;;12.90;;
37895;SDS011;23733;53.254;10.430;2023-02-15T13:34:49;21.07;;;13.57;;
37895;SDS011;23733;53.254;10.430;2023-02-15T13:37:20;19.27;;;13.83;;
37895;SDS011;23733;53.254;10.430;2023-02-15T13:42:37;18.00;;;12.83;;
37895;SDS011;23733;53.254;10.430;2023-02-15T13:53:24;20.53;;;13.83;;
37895;SDS011;23733;53.254;10.430;2023-02-15T13:56:01;20.40;;;14.27;;
37895;SDS011;23733;53.254;10.430;2023-02-15T13:58:35;18.67;;;12.70;;
37895;SDS011;23733;53.254;10.430;2023-02-15T14:01:18;17.77;;;12.77;;
37895;SDS011;23733;53.254;10.430;2023-02-15T14:03:52;19.60;;;14.53;;
37895;SDS011;23733;53.254;10.430;2023-02-15T14:06:34;20.23;;;13.33;;
37895;SDS011;23733;53.254;10.430;2023-02-15T14:09:25;27.40;;;14.50;;
37895;SDS011;23733;53.254;10.430;2023-02-15T14:17:12;20.30;;;14.13;;
37895;SDS011;23733;53.254;10.430;2023-02-15T14:19:52;19.43;;;13.90;;
37895;SDS011;23733;53.254;10.430;2023-02-15T14:22:35;20.57;;;13.80;;
37895;SDS011;23733;53.254;10.430;2023-02-15T14:25:11;20.70;;;13.00;;
37895;SDS011;23733;53.254;10.430;2023-02-15T14:27:58;20.40;;;14.57;;
37895;SDS011;23733;53.254;10.430;2023-02-15T14:30:26;20.43;;;14.73;;
37895;SDS011;23733;53.254;10.430;2023-02-15T14:32:56;21.17;;;14.27;;
37895;SDS011;23733;53.254;10.430;2023-02-15T14:35:26;20.30;;;14.13;;
37895;SDS011;23733;53.254;10.430;2023-02-15T14:37:55;24.17;;;16.07;;
37895;SDS011;23733;53.254;10.430;2023-02-15T14:43:27;21.70;;;14.67;;
37895;SDS011;23733;53.254;10.430;2023-02-15T14:46:11;18.37;;;13.20;;
37895;SDS011;23733;53.254;10.430;2023-02-15T14:48:42;20.30;;;14.50;;
37895;SDS011;23733;53.254;10.430;2023-02-15T14:51:25;19.37;;;13.87;;
37895;SDS011;23733;53.254;10.430;2023-02-15T14:53:57;18.87;;;13.87;;
37895;SDS011;23733;53.254;10.430;2023-02-15T14:56:24;22.47;;;14.67;;
37895;SDS011;23733;53.254;10.430;2023-02-15T15:01:30;21.03;;;14.87;;
37895;SDS011;23733;53.254;10.430;2023-02-15T15:04:07;22.53;;;15.00;;
37895;SDS011;23733;53.254;10.430;2023-02-15T15:06:36;20.47;;;14.90;;
37895;SDS011;23733;53.254;10.430;2023-02-15T15:09:19;21.37;;;14.47;;
37895;SDS011;23733;53.254;10.430;2023-02-15T15:11:48;19.87;;;13.73;;
37895;SDS011;23733;53.254;10.430;2023-02-15T15:17:00;21.23;;;14.33;;
37895;SDS011;23733;53.254;10.430;2023-02-15T15:22:18;22.80;;;15.30;;
37895;SDS011;23733;53.254;10.430;2023-02-15T15:24:46;21.30;;;15.77;;
37895;SDS011;23733;53.254;10.430;2023-02-15T15:29:57;21.73;;;15.03;;
37895;SDS011;23733;53.254;10.430;2023-02-15T15:32:25;22.53;;;14.30;;
37895;SDS011;23733;53.254;10.430;2023-02-15T15:37:38;21.93;;;15.90;;
37895;SDS011;23733;53.254;10.430;2023-02-15T15:40:15;22.83;;;14.87;;
37895;SDS011;23733;53.254;10.430;2023-02-15T15:50:46;22.90;;;16.13;;
37895;SDS011;23733;53.254;10.430;2023-02-15T15:53:17;23.50;;;15.87;;
37895;SDS011;23733;53.254;10.430;2023-02-15T15:55:44;22.00;;;15.57;;
37895;SDS011;23733;53.254;10.430;2023-02-15T15:58:12;23.90;;;14.50;;
37895;SDS011;23733;53.254;10.430;2023-02-15T16:00:49;22.30;;;15.73;;
37895;SDS011;23733;53.254;10.430;2023-02-15T16:03:26;22.13;;;15.43;;
37895;SDS011;23733;53.254;10.430;2023-02-15T16:05:52;22.40;;;15.20;;
37895;SDS011;23733;53.254;10.430;2023-02-15T16:10:56;23.23;;;16.13;;
37895;SDS011;23733;53.254;10.430;2023-02-15T16:13:22;23.13;;;15.63;;
37895;SDS011;23733;53.254;10.430;2023-02-15T16:15:53;23.40;;;16.23;;
37895;SDS011;23733;53.254;10.430;2023-02-15T16:18:21;26.13;;;16.67;;